The current weather does not conform to reality

Personnal Weather Station (PWS) support
Post Reply
Henrydeacy
Posts: 1
Joined: Sat Feb 02, 2019 2:05 pm
Name: HenrydeacyCD
Location: Sri Lanka
Contact:

The current weather does not conform to reality

Post by Henrydeacy » Tue Mar 12, 2019 6:57 pm

HSEA 261015Z 09010KT 9999 NSW OCV009 14/12 Q1023 NOSIG

Location: HORNSEA
Day of month: 26
Time: 10:15 UTC
Wind: True direction = 090 degrees
Speed: 10 knots
Visibility: 10 km or more
No significant weather
Temperature: 14 degrees Celsius
Dewpoint: 12 degrees Celsius
QNH Sea-level pressure: 1023 hPa
No significant changes expected in the near future

Post Reply